Terminal Aerodrome Forecast
Issued by NWS

Current Version | Previous Version | Text Only | Print | Product List | Glossary On
Versions: 1 2 3 4 5 6 7 8 9 10 11 12 13 14 15 16 17 18 19 20 21 22 23 24 25 26 27 28 29 30 31 32 33 34 35 36
113
FTUS43 KLOT 222320
TAFORD
TAF
KORD 222320Z 2300/2406 36007KT P6SM BKN013 OVC080
     FM230900 34007KT 5SM BR OVC010
     FM231600 34008KT P6SM OVC015=

USA.gov is the U.S. government's official web portal to all federal, state and local government web resources and services.